Time;durP1;ratioP1;P1;durP2;ratioP2;P2;SDS_P1;SDS_P2;PMS_P1;PMS_P2;Temp;Humidity;BMP_temperature;BMP_pressure;BME280_temperature;BME280_humidity;BME280_pressure;Samples;Min_cycle;Max_cycle;Signal;HPM_P1;HPM_P2
2023/08/02 00:02:31;;;;;;;8.30;5.30;;;15.50;99.90;;;;;;5373513;23;658111;-71
2023/08/02 00:05:18;;;;;;;9.87;5.93;;;15.50;99.90;;;;;;5351029;23;656723;-70
2023/08/02 00:08:05;;;;;;;9.20;6.27;;;15.50;99.90;;;;;;5374051;23;657522;-71
2023/08/02 00:10:53;;;;;;;14.50;7.03;;;15.40;99.90;;;;;;5352270;23;656840;-70
2023/08/02 00:13:40;;;;;;;19.67;7.37;;;15.40;99.90;;;;;;5372668;23;659008;-70
2023/08/02 00:16:29;;;;;;;11.80;7.30;;;15.40;99.90;;;;;;5365864;23;657619;-70
2023/08/02 00:19:16;;;;;;;12.93;7.43;;;15.40;99.90;;;;;;5378212;23;658267;-71
2023/08/02 00:22:04;;;;;;;15.77;6.97;;;15.40;99.90;;;;;;5350751;23;658501;-69
2023/08/02 00:24:51;;;;;;;12.53;6.63;;;15.40;99.90;;;;;;5372293;23;658319;-70
2023/08/02 00:27:38;;;;;;;13.43;6.90;;;15.50;99.90;;;;;;5350239;23;657750;-70
2023/08/02 00:30:25;;;;;;;11.53;5.73;;;15.50;99.90;;;;;;5374510;23;658410;-70
2023/08/02 00:33:14;;;;;;;10.03;5.63;;;15.50;99.90;;;;;;5347787;23;657797;-70
2023/08/02 00:36:01;;;;;;;9.80;5.80;;;15.50;99.90;;;;;;5372631;23;657488;-69
2023/08/02 00:38:48;;;;;;;10.00;5.63;;;15.50;99.90;;;;;;5346996;23;656601;-70
2023/08/02 00:41:35;;;;;;;9.37;5.87;;;15.50;99.90;;;;;;5372912;23;658765;-69
2023/08/02 00:44:22;;;;;;;10.50;5.70;;;15.50;99.90;;;;;;5352474;23;656620;-69
2023/08/02 00:47:10;;;;;;;9.17;4.97;;;15.50;99.90;;;;;;5377349;23;658219;-69
2023/08/02 00:49:59;;;;;;;9.93;5.50;;;15.50;99.90;;;;;;5373422;23;656892;-70
2023/08/02 00:52:46;;;;;;;12.07;5.17;;;15.40;99.90;;;;;;5374015;23;657859;-70
2023/08/02 00:55:34;;;;;;;10.20;5.40;;;15.40;99.90;;;;;;5348750;23;658127;-71
2023/08/02 00:58:21;;;;;;;11.47;5.10;;;15.30;99.90;;;;;;5372789;23;658347;-70
2023/08/02 01:01:09;;;;;;;8.37;4.60;;;15.30;99.90;;;;;;5346143;23;657554;-70
2023/08/02 01:03:56;;;;;;;10.23;5.10;;;15.30;99.90;;;;;;5372991;23;657652;-71
2023/08/02 01:06:46;;;;;;;12.00;5.67;;;15.20;99.90;;;;;;5350076;23;658087;-70
2023/08/02 01:09:36;;;;;;;9.27;4.93;;;15.20;99.90;;;;;;5349520;23;657721;-69
2023/08/02 01:12:23;;;;;;;8.63;4.40;;;15.20;99.90;;;;;;5348906;23;656573;-70
2023/08/02 01:15:11;;;;;;;22.93;6.03;;;15.20;99.90;;;;;;5373094;23;658783;-69
2023/08/02 01:17:58;;;;;;;10.50;5.17;;;15.10;99.90;;;;;;5350252;23;657705;-70
2023/08/02 01:20:46;;;;;;;10.83;5.67;;;15.10;99.90;;;;;;5378567;23;658483;-70
2023/08/02 01:23:34;;;;;;;11.50;5.03;;;15.10;99.90;;;;;;5344278;23;658342;-69
2023/08/02 01:26:21;;;;;;;9.83;5.63;;;15.00;99.90;;;;;;5371839;23;657898;-69
2023/08/02 01:29:09;;;;;;;8.13;5.57;;;14.90;99.90;;;;;;5351030;23;656726;-70
2023/08/02 01:31:56;;;;;;;12.23;5.77;;;15.00;99.90;;;;;;5373232;23;656806;-69
2023/08/02 01:34:43;;;;;;;12.20;5.90;;;15.00;99.90;;;;;;5349346;23;657529;-70
2023/08/02 01:37:34;;;;;;;11.50;5.90;;;15.00;99.90;;;;;;5372197;23;658900;-70
2023/08/02 01:40:21;;;;;;;12.03;5.97;;;15.00;99.90;;;;;;5343430;23;658332;-70
2023/08/02 01:43:08;;;;;;;10.73;6.07;;;15.00;99.90;;;;;;5348560;23;658215;-70
2023/08/02 01:45:56;;;;;;;9.77;5.93;;;15.00;99.90;;;;;;5371384;23;658541;-69
2023/08/02 01:48:43;;;;;;;12.00;6.83;;;15.00;99.90;;;;;;5349949;23;656964;-70
2023/08/02 01:51:30;;;;;;;11.47;6.93;;;15.00;99.90;;;;;;5374894;23;658378;-70
2023/08/02 01:54:19;;;;;;;10.10;5.90;;;15.00;99.90;;;;;;5354169;23;657676;-69
2023/08/02 01:57:06;;;;;;;10.40;6.97;;;15.00;99.90;;;;;;5375808;23;657506;-69
2023/08/02 01:59:53;;;;;;;11.30;6.70;;;15.10;99.90;;;;;;5349083;23;658351;-70
2023/08/02 02:02:41;;;;;;;10.27;6.40;;;15.10;99.90;;;;;;5371650;23;658399;-69
2023/08/02 02:05:28;;;;;;;13.67;6.83;;;15.10;99.90;;;;;;5349015;23;657550;-70
2023/08/02 02:08:15;;;;;;;11.10;6.80;;;15.10;99.90;;;;;;5371834;23;658778;-69
2023/08/02 02:11:04;;;;;;;15.80;6.67;;;15.10;99.90;;;;;;5363178;23;657396;-69
2023/08/02 02:13:52;;;;;;;11.47;6.73;;;15.10;99.90;;;;;;5372772;23;658114;-70
2023/08/02 02:16:39;;;;;;;10.17;6.60;;;15.20;99.90;;;;;;5349608;23;657809;-69
2023/08/02 02:19:26;;;;;;;11.43;6.20;;;15.20;99.90;;;;;;5374907;23;658688;-70
2023/08/02 02:22:13;;;;;;;12.93;6.70;;;15.20;99.90;;;;;;5349932;23;657747;-69
2023/08/02 02:25:00;;;;;;;9.47;6.50;;;15.20;99.90;;;;;;5373537;23;658705;-69
2023/08/02 02:27:49;;;;;;;13.93;7.38;;;15.20;99.90;;;;;;5351478;23;656274;-69
2023/08/02 02:30:36;;;;;;;11.30;7.60;;;15.10;99.90;;;;;;5373935;23;657900;-70
2023/08/02 02:33:24;;;;;;;14.70;7.13;;;15.10;99.90;;;;;;5346527;23;658630;-70
2023/08/02 02:36:11;;;;;;;16.73;7.40;;;15.10;99.90;;;;;;5373962;23;658697;-69
2023/08/02 02:38:58;;;;;;;15.23;7.90;;;15.00;99.90;;;;;;5351560;23;657803;-69
2023/08/02 02:41:45;;;;;;;15.43;8.50;;;15.00;99.90;;;;;;5378269;23;658481;-70
2023/08/02 02:44:43;;;;;;;11.93;7.30;;;15.00;99.90;;;;;;5353751;23;658066;-69
2023/08/02 02:47:30;;;;;;;21.02;8.88;;;15.00;99.90;;;;;;5346000;23;658370;-69
2023/08/02 02:50:18;;;;;;;16.70;9.20;;;15.10;99.90;;;;;;5350466;23;657597;-69
2023/08/02 02:53:05;;;;;;;13.73;8.47;;;15.10;99.90;;;;;;5377196;23;658319;-70
2023/08/02 02:55:52;;;;;;;13.77;9.40;;;15.10;99.90;;;;;;5352873;23;658128;-69
2023/08/02 02:58:40;;;;;;;21.37;9.90;;;15.10;99.90;;;;;;5378531;23;658702;-70
2023/08/02 03:01:28;;;;;;;19.30;10.47;;;15.10;99.90;;;;;;5372653;23;657587;-69
2023/08/02 03:04:15;;;;;;;16.70;9.87;;;15.10;99.90;;;;;;5343202;23;659322;-70
2023/08/02 03:07:03;;;;;;;14.53;10.30;;;15.10;99.90;;;;;;5349821;23;657747;-69
2023/08/02 03:09:50;;;;;;;20.33;10.87;;;15.10;99.90;;;;;;5375943;23;658371;-69
2023/08/02 03:12:37;;;;;;;18.87;11.47;;;15.00;99.90;;;;;;5369331;23;658706;-69
2023/08/02 03:15:25;;;;;;;17.27;10.80;;;15.00;99.90;;;;;;5375986;23;658323;-71
2023/08/02 03:18:14;;;;;;;14.23;10.73;;;15.00;99.90;;;;;;5370475;23;658638;-69
2023/08/02 03:21:01;;;;;;;17.77;10.43;;;15.00;99.90;;;;;;5371172;23;659120;-70
2023/08/02 03:23:48;;;;;;;17.90;10.30;;;14.90;99.90;;;;;;5344615;23;658565;-70
2023/08/02 03:26:35;;;;;;;21.20;11.07;;;15.00;99.90;;;;;;5375499;23;659519;-69
2023/08/02 03:29:22;;;;;;;16.30;10.63;;;15.00;99.90;;;;;;5348438;23;658478;-69
2023/08/02 03:32:10;;;;;;;16.63;10.67;;;14.90;99.90;;;;;;5370558;23;659765;-69
2023/08/02 03:34:59;;;;;;;18.87;11.07;;;14.90;99.90;;;;;;5369247;23;658671;-69
2023/08/02 03:37:46;;;;;;;21.43;11.33;;;14.90;99.90;;;;;;5371452;23;658868;-70
2023/08/02 03:40:33;;;;;;;20.07;11.23;;;14.90;99.90;;;;;;5345832;23;658668;-70
2023/08/02 03:43:20;;;;;;;17.00;11.53;;;14.90;99.90;;;;;;5371258;23;659328;-69
2023/08/02 03:46:07;;;;;;;20.00;11.90;;;14.80;99.90;;;;;;5347973;23;659722;-69
2023/08/02 03:48:55;;;;;;;17.23;12.00;;;14.80;99.90;;;;;;5371385;23;659662;-70
2023/08/02 03:51:43;;;;;;;19.70;11.70;;;14.90;99.90;;;;;;5371183;23;658339;-70
2023/08/02 03:54:31;;;;;;;17.23;11.23;;;14.90;99.90;;;;;;5343740;23;659668;-70
2023/08/02 03:57:18;;;;;;;19.57;12.27;;;14.90;99.90;;;;;;5346584;23;658620;-69
2023/08/02 04:00:06;;;;;;;20.03;11.27;;;14.90;99.90;;;;;;5370160;23;659905;-70
2023/08/02 04:02:54;;;;;;;20.20;11.33;;;14.90;99.90;;;;;;5346648;23;658474;-71
2023/08/02 04:05:42;;;;;;;19.10;10.90;;;14.90;99.90;;;;;;5371353;23;659544;-70
2023/08/02 04:08:30;;;;;;;19.07;11.03;;;14.90;99.90;;;;;;5348185;23;658982;-70
2023/08/02 04:11:17;;;;;;;19.13;11.63;;;14.90;99.90;;;;;;5347013;23;658572;-70
2023/08/02 04:14:05;;;;;;;17.00;11.37;;;14.90;99.90;;;;;;5375368;23;659281;-68
2023/08/02 04:16:52;;;;;;;18.27;10.73;;;14.90;99.90;;;;;;5369934;23;659097;-69
2023/08/02 04:19:39;;;;;;;22.23;11.03;;;14.80;99.90;;;;;;5343941;23;659452;-70
2023/08/02 04:22:26;;;;;;;19.27;12.33;;;14.80;99.90;;;;;;5371894;23;659097;-70
2023/08/02 04:25:15;;;;;;;19.47;12.20;;;14.80;99.90;;;;;;5347965;23;658556;-70
2023/08/02 04:28:02;;;;;;;20.20;12.20;;;14.90;99.90;;;;;;5364781;23;658913;-70
2023/08/02 04:30:50;;;;;;;18.03;11.80;;;15.00;99.90;;;;;;5371446;23;659851;-70
2023/08/02 04:33:38;;;;;;;17.60;11.90;;;14.90;99.90;;;;;;5347813;23;659496;-70
2023/08/02 04:36:25;;;;;;;21.17;12.17;;;15.00;99.90;;;;;;5370327;23;660709;-70
2023/08/02 04:39:15;;;;;;;21.33;12.73;;;15.00;99.90;;;;;;5367072;23;658393;-70
2023/08/02 04:42:04;;;;;;;21.70;12.83;;;15.00;99.90;;;;;;5370050;23;658129;-70
2023/08/02 04:44:51;;;;;;;19.07;12.67;;;15.00;99.90;;;;;;5342719;23;659743;-69
2023/08/02 04:47:38;;;;;;;17.03;11.83;;;15.00;99.90;;;;;;5347497;23;658603;-70
2023/08/02 04:50:25;;;;;;;23.83;13.70;;;15.10;99.90;;;;;;5372422;23;659310;-69
2023/08/02 04:53:12;;;;;;;19.13;11.77;;;15.10;99.90;;;;;;5347356;23;658698;-68
2023/08/02 04:56:00;;;;;;;22.27;13.40;;;15.10;99.90;;;;;;5375115;23;658592;-70
2023/08/02 04:58:48;;;;;;;22.83;14.97;;;14.90;99.90;;;;;;5370543;23;658616;-70
2023/08/02 05:01:35;;;;;;;21.40;13.93;;;15.00;99.90;;;;;;5341202;23;659175;-69
2023/08/02 05:04:22;;;;;;;23.20;15.38;;;14.90;99.90;;;;;;5347221;23;658548;-69
2023/08/02 05:07:10;;;;;;;20.67;14.20;;;15.00;99.90;;;;;;5369796;23;659489;-69
2023/08/02 05:09:59;;;;;;;24.83;13.83;;;15.10;99.90;;;;;;5369798;23;659080;-70
2023/08/02 05:12:46;;;;;;;16.07;12.50;;;15.20;99.90;;;;;;5371837;23;658484;-70
2023/08/02 05:15:37;;;;;;;19.03;11.57;;;15.30;99.90;;;;;;5347347;23;658780;-70
2023/08/02 05:18:24;;;;;;;19.37;12.07;;;15.30;99.90;;;;;;5347295;23;660436;-70
2023/08/02 05:21:12;;;;;;;19.53;11.73;;;15.40;99.90;;;;;;5369980;23;658586;-69
2023/08/02 05:23:59;;;;;;;19.20;11.33;;;15.40;99.90;;;;;;5343476;23;660036;-69
2023/08/02 05:26:46;;;;;;;14.97;10.83;;;15.40;99.90;;;;;;5376019;23;658827;-70
2023/08/02 05:29:33;;;;;;;17.00;10.70;;;15.50;99.90;;;;;;5349127;23;659197;-70
2023/08/02 05:32:22;;;;;;;14.77;10.20;;;15.50;99.90;;;;;;5370017;23;659597;-69
2023/08/02 05:35:09;;;;;;;13.83;9.50;;;15.70;99.90;;;;;;5343496;23;659510;-69
2023/08/02 05:37:57;;;;;;;11.23;8.60;;;15.80;99.90;;;;;;5373206;23;657655;-69
2023/08/02 05:40:44;;;;;;;12.13;8.50;;;15.80;99.90;;;;;;5351704;23;657901;-70
2023/08/02 05:43:31;;;;;;;15.40;8.37;;;16.00;99.90;;;;;;5373920;23;657615;-70
2023/08/02 05:46:18;;;;;;;15.13;8.20;;;16.20;99.90;;;;;;5351628;23;657814;-70
2023/08/02 05:49:07;;;;;;;13.33;8.00;;;16.20;99.90;;;;;;5376597;23;658454;-70
2023/08/02 05:51:54;;;;;;;12.17;7.63;;;16.20;99.90;;;;;;5351200;23;657335;-70
2023/08/02 05:54:42;;;;;;;10.27;7.00;;;16.20;99.90;;;;;;5373077;23;657371;-69
2023/08/02 05:57:29;;;;;;;10.30;6.27;;;16.40;99.90;;;;;;5351000;23;657269;-69
2023/08/02 06:00:17;;;;;;;10.60;6.60;;;16.50;99.90;;;;;;5374157;23;657280;-69
2023/08/02 06:03:04;;;;;;;12.27;6.03;;;16.60;99.90;;;;;;5351104;23;657275;-69
2023/08/02 06:05:53;;;;;;;10.87;6.70;;;16.60;99.90;;;;;;5370704;23;657726;-70
2023/08/02 06:08:41;;;;;;;9.00;5.80;;;16.60;99.90;;;;;;5343675;23;658820;-70
2023/08/02 06:11:28;;;;;;;7.83;5.40;;;16.70;99.90;;;;;;5349253;23;656905;-70
2023/08/02 06:14:15;;;;;;;8.53;5.33;;;16.80;99.90;;;;;;5372246;23;658016;-70
2023/08/02 06:17:03;;;;;;;9.77;5.80;;;16.60;99.90;;;;;;5349438;23;656664;-69
2023/08/02 06:19:50;;;;;;;8.83;5.20;;;16.70;99.90;;;;;;5372668;23;657412;-71
2023/08/02 06:22:39;;;;;;;8.50;5.40;;;17.00;99.90;;;;;;5365314;23;656750;-71
2023/08/02 06:25:27;;;;;;;8.17;4.87;;;17.20;99.90;;;;;;5372009;23;656713;-72
2023/08/02 06:28:14;;;;;;;10.63;5.00;;;17.30;99.90;;;;;;5348576;23;656675;-70
2023/08/02 06:31:01;;;;;;;7.10;4.77;;;17.20;99.90;;;;;;5371612;23;657194;-71
2023/08/02 06:33:49;;;;;;;8.07;4.70;;;17.30;99.90;;;;;;5346722;23;657069;-71
2023/08/02 06:36:38;;;;;;;7.03;4.87;;;17.40;99.90;;;;;;5373032;23;657265;-71
2023/08/02 06:39:26;;;;;;;12.73;5.37;;;17.50;99.90;;;;;;5343217;23;657314;-70
2023/08/02 06:42:14;;;;;;;8.60;4.77;;;17.40;99.90;;;;;;5345239;23;658058;-71
2023/08/02 06:45:01;;;;;;;10.40;4.70;;;17.60;99.90;;;;;;5371885;23;657446;-70
2023/08/02 06:47:48;;;;;;;8.20;4.63;;;17.70;99.90;;;;;;5346893;23;658402;-71
2023/08/02 06:50:37;;;;;;;8.23;4.20;;;17.70;99.90;;;;;;5375962;23;657504;-71
2023/08/02 06:53:24;;;;;;;7.67;4.33;;;17.70;99.90;;;;;;5341750;23;658214;-70
2023/08/02 06:56:13;;;;;;;7.53;4.40;;;17.80;99.90;;;;;;5371613;23;656914;-70
2023/08/02 06:59:01;;;;;;;5.63;4.40;;;17.90;99.90;;;;;;5344344;23;657961;-71
2023/08/02 07:01:48;;;;;;;6.60;4.27;;;18.20;99.90;;;;;;5347834;23;656561;-71
2023/08/02 07:04:35;;;;;;;6.47;3.87;;;18.30;99.90;;;;;;5370458;23;657912;-71
2023/08/02 07:07:22;;;;;;;4.80;3.50;;;18.30;99.90;;;;;;5359917;23;656901;-70
2023/08/02 07:10:10;;;;;;;8.23;3.70;;;18.30;99.90;;;;;;5374610;23;657347;-70
2023/08/02 07:12:59;;;;;;;7.30;4.03;;;18.40;99.90;;;;;;5367259;23;657155;-70
2023/08/02 07:15:46;;;;;;;5.93;3.47;;;18.30;99.90;;;;;;5370592;23;657091;-70
2023/08/02 07:18:33;;;;;;;6.43;3.63;;;18.10;99.90;;;;;;5344813;23;657267;-70
2023/08/02 07:21:20;;;;;;;3.80;3.03;;;18.50;99.90;;;;;;5370505;23;657133;-70
2023/08/02 07:24:08;;;;;;;4.73;3.40;;;18.90;99.90;;;;;;5348174;23;656371;-70
2023/08/02 07:26:55;;;;;;;6.33;3.40;;;18.90;99.90;;;;;;5370580;23;657592;-70
2023/08/02 07:29:44;;;;;;;7.93;3.13;;;19.40;99.90;;;;;;5356838;23;656596;-71
2023/08/02 07:32:31;;;;;;;5.80;3.23;;;19.60;99.90;;;;;;5375352;23;656564;-70
2023/08/02 07:35:19;;;;;;;6.83;3.57;;;19.40;99.90;;;;;;5349460;23;656813;-70
2023/08/02 07:38:06;;;;;;;5.83;2.90;;;19.30;99.90;;;;;;5371251;23;657236;-70
2023/08/02 07:40:53;;;;;;;4.83;2.90;;;19.60;99.90;;;;;;5348237;23;657030;-70
2023/08/02 07:43:40;;;;;;;4.63;2.80;;;19.50;99.90;;;;;;5373884;23;657983;-70
2023/08/02 07:46:29;;;;;;;6.30;2.93;;;19.30;99.90;;;;;;5346982;23;656589;-70
2023/08/02 07:49:16;;;;;;;5.67;2.70;;;19.20;99.90;;;;;;5371878;23;656659;-69
2023/08/02 07:52:04;;;;;;;4.00;2.70;;;19.00;99.90;;;;;;5346708;23;656754;-70
2023/08/02 07:54:53;;;;;;;7.70;3.00;;;19.20;99.90;;;;;;5370940;23;657045;-70
2023/08/02 07:57:40;;;;;;;4.27;2.60;;;19.40;99.90;;;;;;5343528;23;656553;-69
2023/08/02 08:00:27;;;;;;;4.87;2.23;;;19.60;99.90;;;;;;5367935;23;656609;-71
2023/08/02 08:03:16;;;;;;;3.83;3.00;;;20.20;99.90;;;;;;5376712;23;656956;-70
2023/08/02 08:06:10;;;;;;;4.50;2.30;;;20.60;99.90;;;;;;5343288;23;657055;-70
2023/08/02 08:08:57;;;;;;;6.07;3.20;;;20.30;99.90;;;;;;5370102;23;656444;-70
2023/08/02 08:11:45;;;;;;;5.57;2.40;;;20.30;99.90;;;;;;5375254;23;655968;-71
2023/08/02 08:14:33;;;;;;;2.90;2.43;;;20.10;99.90;;;;;;5370602;23;656379;-70
2023/08/02 08:17:20;;;;;;;5.60;2.13;;;20.50;99.90;;;;;;5370714;23;657904;-71
2023/08/02 08:20:10;;;;;;;4.53;2.90;;;20.70;99.90;;;;;;5364323;23;656278;-71
2023/08/02 08:22:57;;;;;;;4.63;2.47;;;20.60;99.90;;;;;;5351110;23;656676;-71
2023/08/02 08:25:45;;;;;;;3.50;2.53;;;20.30;99.90;;;;;;5371604;23;657387;-70
2023/08/02 08:28:32;;;;;;;5.90;2.60;;;20.40;99.90;;;;;;5374918;23;656587;-71
2023/08/02 08:31:19;;;;;;;7.90;2.30;;;20.70;99.90;;;;;;5346734;23;656531;-71
2023/08/02 08:34:06;;;;;;;4.22;2.63;;;21.20;99.90;;;;;;5366673;23;656808;-71
2023/08/02 08:36:55;;;;;;;2.87;2.27;;;21.30;99.90;;;;;;5348527;23;656774;-71
2023/08/02 08:39:42;;;;;;;7.90;2.50;;;21.50;99.90;;;;;;5367139;23;656537;-71
2023/08/02 08:42:30;;;;;;;2.67;1.87;;;21.00;99.90;;;;;;5375895;23;656523;-71
2023/08/02 08:45:18;;;;;;;3.70;2.20;;;20.90;99.90;;;;;;5368846;23;656750;-71
2023/08/02 08:48:06;;;;;;;2.87;2.17;;;20.80;99.90;;;;;;5342755;23;656994;-71
2023/08/02 08:50:55;;;;;;;3.20;2.10;;;20.60;99.90;;;;;;5344346;23;656643;-71
2023/08/02 08:53:45;;;;;;;4.33;2.40;;;20.60;99.90;;;;;;5357148;23;656542;-71
2023/08/02 08:56:32;;;;;;;4.30;2.23;;;20.50;99.90;;;;;;5370627;23;656209;-71
2023/08/02 08:59:19;;;;;;;4.00;2.27;;;20.60;99.90;;;;;;5340656;23;658110;-71
2023/08/02 09:02:06;;;;;;;4.93;2.20;;;20.40;99.90;;;;;;5370366;23;656795;-72
2023/08/02 09:04:54;;;;;;;2.90;2.00;;;20.40;99.90;;;;;;5342456;23;656698;-71
2023/08/02 09:07:41;;;;;;;4.53;1.73;;;20.30;99.90;;;;;;5369912;23;657016;-71
2023/08/02 09:10:29;;;;;;;2.93;1.87;;;20.40;99.90;;;;;;5347078;23;656647;-71
2023/08/02 09:13:23;;;;;;;3.93;1.90;;;20.30;99.90;;;;;;5370344;23;657064;-71
2023/08/02 09:16:11;;;;;;;4.70;1.80;;;20.30;99.90;;;;;;5345679;23;656382;-71
2023/08/02 09:18:58;;;;;;;1.80;1.60;;;20.90;99.90;;;;;;5347980;23;656974;-71
2023/08/02 09:21:45;;;;;;;2.77;1.70;;;21.70;99.90;;;;;;5374778;23;657576;-70
2023/08/02 09:24:33;;;;;;;4.50;1.63;;;22.00;99.90;;;;;;5349583;23;656763;-71
2023/08/02 09:27:22;;;;;;;2.67;2.03;;;21.80;99.90;;;;;;5375069;23;657943;-71
2023/08/02 09:30:09;;;;;;;7.23;1.70;;;22.00;99.90;;;;;;5346653;23;656565;-71
2023/08/02 09:33:00;;;;;;;6.00;1.60;;;22.10;99.90;;;;;;5369478;23;656906;-71
2023/08/02 09:35:51;;;;;;;3.73;1.43;;;22.10;99.90;;;;;;5319733;23;657069;-71
2023/08/02 09:38:38;;;;;;;6.70;1.60;;;22.00;99.90;;;;;;5345874;23;656992;-72
2023/08/02 09:41:26;;;;;;;4.03;1.50;;;22.30;99.90;;;;;;5374716;23;657040;-71
2023/08/02 09:44:20;;;;;;;3.97;1.43;;;22.80;99.90;;;;;;5347071;23;656586;-72
2023/08/02 09:47:10;;;;;;;3.10;1.60;;;22.80;99.90;;;;;;5342286;23;657421;-71
2023/08/02 09:50:05;;;;;;;3.93;1.80;;;22.20;99.90;;;;;;5321790;23;656167;-71
2023/08/02 09:52:52;;;;;;;5.40;1.50;;;22.70;99.90;;;;;;5331833;23;656636;-72
2023/08/02 09:55:41;;;;;;;2.00;1.53;;;22.80;99.90;;;;;;5374998;23;656899;-72
2023/08/02 09:58:28;;;;;;;2.00;1.33;;;22.60;99.90;;;;;;5347714;23;656864;-71
2023/08/02 10:01:17;;;;;;;2.00;1.30;;;22.60;99.90;;;;;;5373994;23;657094;-71
2023/08/02 10:04:06;;;;;;;5.43;1.27;;;22.50;99.90;;;;;;5348127;23;656994;-73
2023/08/02 10:06:57;;;;;;;3.10;1.37;;;22.50;99.90;;;;;;5346905;23;656291;-72
2023/08/02 10:09:44;;;;;;;2.53;1.30;;;22.10;99.90;;;;;;5347809;23;656349;-71
2023/08/02 10:12:31;;;;;;;2.10;1.30;;;22.10;99.90;;;;;;5368148;23;656590;-72
2023/08/02 10:15:18;;;;;;;3.97;1.43;;;21.70;99.90;;;;;;5346859;23;657146;-71
2023/08/02 10:18:07;;;;;;;3.73;1.10;;;21.80;99.90;;;;;;5369912;23;657654;-72
2023/08/02 10:20:54;;;;;;;1.30;1.20;;;22.50;99.90;;;;;;5342032;23;657390;-71
2023/08/02 10:23:42;;;;;;;2.60;1.13;;;23.00;99.90;;;;;;5370812;23;656047;-71
2023/08/02 10:26:30;;;;;;;2.25;1.17;;;23.40;99.90;;;;;;5343894;23;657809;-71
2023/08/02 10:29:17;;;;;;;4.22;1.20;;;23.30;99.90;;;;;;5368352;23;656773;-71
2023/08/02 10:32:14;;;;;;;4.00;1.50;;;23.10;99.90;;;;;;5375993;23;656286;-71
2023/08/02 10:35:03;;;;;;;3.10;1.47;;;22.40;99.90;;;;;;5344272;23;656437;-71
2023/08/02 10:37:54;;;;;;;3.50;1.60;;;21.70;99.90;;;;;;5342817;23;657209;-71
2023/08/02 10:41:02;;;;;;;4.03;1.50;;;21.60;99.90;;;;;;5343441;23;656267;-72
2023/08/02 10:44:12;;;;;;;3.97;1.20;;;22.20;99.90;;;;;;5343706;23;657675;-71
2023/08/02 10:47:24;;;;;;;3.63;1.30;;;22.30;99.90;;;;;;5349002;23;656641;-71
2023/08/02 10:50:40;;;;;;;2.55;1.42;;;22.60;99.90;;;;;;5342117;23;656434;-71
2023/08/02 10:53:29;;;;;;;2.67;1.10;;;23.60;99.90;;;;;;5322258;23;657303;-71
2023/08/02 10:56:17;;;;;;;2.40;1.20;;;23.60;99.90;;;;;;5372742;23;656350;-71
2023/08/02 10:59:04;;;;;;;1.73;1.20;;;23.50;99.90;;;;;;5343883;23;657999;-71
2023/08/02 11:01:55;;;;;;;7.38;1.10;;;23.40;99.90;;;;;;5371892;23;656665;-73
2023/08/02 11:04:45;;;;;;;1.35;1.10;;;22.90;99.90;;;;;;5324579;23;656693;-72
2023/08/02 11:07:34;;;;;;;2.20;1.02;;;23.50;99.90;;;;;;5353498;23;656680;-72
2023/08/02 11:10:23;;;;;;;1.13;1.00;;;23.20;99.90;;;;;;5371027;23;656614;-71
2023/08/02 11:13:10;;;;;;;2.40;1.40;;;23.40;99.90;;;;;;5345028;23;656590;-72
2023/08/02 11:16:02;;;;;;;5.45;1.13;;;23.00;99.90;;;;;;5349744;23;656511;-73
2023/08/02 11:18:50;;;;;;;1.73;1.10;;;23.40;97.90;;;;;;5348668;23;657024;-71
2023/08/02 11:21:37;;;;;;;1.48;1.02;;;23.10;96.20;;;;;;5357885;23;656508;-71
2023/08/02 11:24:25;;;;;;;7.22;1.63;;;23.30;98.20;;;;;;5377559;23;656397;-71
2023/08/02 11:27:19;;;;;;;3.10;1.30;;;23.80;99.20;;;;;;5370904;23;656787;-71
2023/08/02 11:30:07;;;;;;;3.03;1.60;;;24.20;99.40;;;;;;5344021;23;657056;-71
2023/08/02 11:32:54;;;;;;;3.85;1.83;;;23.90;99.90;;;;;;5347268;23;657385;-70
2023/08/02 11:35:42;;;;;;;1.75;1.10;;;23.80;93.10;;;;;;5371433;23;656624;-71
2023/08/02 11:38:29;;;;;;;3.95;1.10;;;23.90;92.90;;;;;;5348567;23;656283;-70
2023/08/02 11:41:17;;;;;;;3.83;1.30;;;24.00;94.80;;;;;;5376090;23;656547;-71
2023/08/02 11:44:14;;;;;;;4.63;1.10;;;24.30;93.40;;;;;;5344004;23;657326;-71
2023/08/02 11:47:01;;;;;;;2.72;0.80;;;24.00;83.60;;;;;;5345257;23;656333;-72
2023/08/02 11:49:50;;;;;;;3.20;0.93;;;23.70;87.30;;;;;;5348008;23;656790;-72
2023/08/02 11:52:37;;;;;;;3.22;1.13;;;24.10;85.00;;;;;;5362259;23;657450;-71
2023/08/02 11:55:25;;;;;;;2.85;1.08;;;24.10;79.60;;;;;;5371363;23;657319;-70
2023/08/02 11:58:12;;;;;;;1.00;0.85;;;24.50;80.80;;;;;;5367826;23;656645;-71
2023/08/02 12:01:01;;;;;;;3.10;1.08;;;24.60;77.40;;;;;;5376376;23;656482;-71
2023/08/02 12:03:56;;;;;;;4.10;1.30;;;24.60;76.10;;;;;;5349225;23;656525;-71
2023/08/02 12:06:47;;;;;;;2.13;0.93;;;25.10;81.30;;;;;;5320790;23;656248;-72
2023/08/02 12:09:43;;;;;;;1.58;0.90;;;25.00;68.00;;;;;;5342645;23;657337;-73
2023/08/02 12:12:30;;;;;;;3.00;0.98;;;24.70;71.00;;;;;;5312076;23;657713;-73
2023/08/02 12:15:18;;;;;;;1.25;0.80;;;23.90;80.50;;;;;;5348116;23;656466;-72
2023/08/02 12:18:07;;;;;;;4.57;1.00;;;24.10;78.10;;;;;;5371299;23;657043;-72
2023/08/02 12:20:55;;;;;;;4.00;0.90;;;24.80;73.30;;;;;;5348543;23;657704;-72
2023/08/02 12:23:42;;;;;;;1.42;0.80;;;25.20;71.30;;;;;;5375940;23;655935;-73
2023/08/02 12:26:30;;;;;;;6.95;0.90;;;24.60;73.70;;;;;;5348268;23;657772;-72
2023/08/02 12:29:24;;;;;;;2.10;0.90;;;24.60;78.20;;;;;;5362209;23;656465;-73
2023/08/02 12:32:11;;;;;;;5.15;1.90;;;24.30;72.40;;;;;;5340841;23;656349;-72
2023/08/02 12:35:05;;;;;;;1.20;0.88;;;23.90;73.20;;;;;;5347470;23;656253;-73
2023/08/02 12:37:53;;;;;;;2.30;1.00;;;24.60;73.80;;;;;;5318291;23;656619;-72
2023/08/02 12:40:40;;;;;;;2.05;0.85;;;24.90;69.60;;;;;;5368403;23;656873;-73
2023/08/02 12:43:28;;;;;;;1.83;0.82;;;25.00;60.70;;;;;;5360754;23;656997;-73
2023/08/02 12:46:16;;;;;;;1.55;0.80;;;25.20;66.90;;;;;;5371984;23;657035;-73
2023/08/02 12:49:03;;;;;;;1.77;0.85;;;25.10;62.40;;;;;;5343590;23;656802;-73
2023/08/02 12:51:52;;;;;;;1.35;0.63;;;24.60;58.80;;;;;;5371957;23;657319;-73
2023/08/02 12:54:39;;;;;;;2.47;0.90;;;24.80;60.90;;;;;;5343476;23;657737;-72
2023/08/02 12:57:27;;;;;;;1.35;1.00;;;25.30;66.60;;;;;;5370174;23;657018;-73
2023/08/02 13:00:15;;;;;;;0.80;0.80;;;25.80;61.50;;;;;;5348749;23;656989;-73
2023/08/02 13:03:02;;;;;;;1.45;0.70;;;25.60;63.30;;;;;;5371404;23;656827;-73
2023/08/02 13:05:49;;;;;;;3.10;1.00;;;25.40;63.50;;;;;;5342321;23;657240;-73
2023/08/02 13:08:38;;;;;;;3.15;0.80;;;25.60;62.70;;;;;;5375551;23;656469;-73
2023/08/02 13:11:25;;;;;;;3.95;1.00;;;25.30;57.80;;;;;;5342803;23;657097;-73
2023/08/02 13:14:12;;;;;;;2.33;1.00;;;24.90;62.30;;;;;;5349442;23;656442;-73
2023/08/02 13:17:00;;;;;;;2.15;1.05;;;25.20;63.80;;;;;;5375070;23;656856;-73
2023/08/02 13:19:47;;;;;;;2.35;0.90;;;25.40;63.10;;;;;;5369482;23;656678;-73
2023/08/02 13:22:35;;;;;;;2.78;0.85;;;25.30;59.80;;;;;;5376071;23;657027;-73
2023/08/02 13:25:23;;;;;;;2.03;0.90;;;25.40;63.60;;;;;;5371229;23;656660;-72
2023/08/02 13:28:12;;;;;;;3.80;1.00;;;25.10;62.70;;;;;;5342359;23;658198;-73
2023/08/02 13:30:59;;;;;;;2.80;1.00;;;25.00;62.40;;;;;;5342473;23;657695;-73
2023/08/02 13:33:47;;;;;;;2.05;0.90;;;25.40;63.90;;;;;;5375963;23;656589;-73
2023/08/02 13:36:34;;;;;;;3.10;1.13;;;25.90;60.60;;;;;;5348246;23;656613;-73
2023/08/02 13:39:21;;;;;;;2.15;1.10;;;25.90;59.40;;;;;;5370026;23;656716;-73
2023/08/02 13:42:10;;;;;;;3.88;1.08;;;25.10;60.40;;;;;;5345628;23;656977;-73
2023/08/02 13:44:57;;;;;;;1.83;1.10;;;24.80;60.80;;;;;;5375916;23;656287;-73
2023/08/02 13:47:44;;;;;;;3.53;1.20;;;24.70;61.40;;;;;;5344306;23;657658;-73
2023/08/02 13:50:32;;;;;;;6.03;1.27;;;24.60;65.30;;;;;;5376846;23;656377;-73
2023/08/02 13:53:19;;;;;;;2.55;1.13;;;25.10;65.60;;;;;;5343776;23;657398;-73
2023/08/02 13:56:06;;;;;;;2.58;1.10;;;25.20;64.80;;;;;;5370693;23;656633;-72
2023/08/02 13:58:55;;;;;;;2.40;1.10;;;25.20;66.30;;;;;;5345421;23;656880;-72
2023/08/02 14:01:42;;;;;;;2.80;1.00;;;25.60;61.80;;;;;;5354397;23;656511;-74
2023/08/02 14:04:30;;;;;;;2.58;1.30;;;25.30;61.80;;;;;;5377161;23;656317;-73
2023/08/02 14:07:17;;;;;;;1.50;1.10;;;25.60;65.30;;;;;;5371548;23;656660;-73
2023/08/02 14:10:05;;;;;;;3.70;1.00;;;25.60;59.60;;;;;;5377883;23;657332;-73
2023/08/02 14:12:53;;;;;;;3.42;1.38;;;25.30;58.80;;;;;;5348921;23;656746;-73
2023/08/02 14:15:41;;;;;;;2.40;1.20;;;25.00;60.50;;;;;;5372305;23;657129;-73
2023/08/02 14:18:28;;;;;;;2.05;0.77;;;25.60;58.90;;;;;;5348612;23;656742;-74